• Join FlightAware (Why Join?)
  • Login
  • US Flag 
 
02:23AM EST


 

Airport Tracker/Info


-or-


 

Live Flight TrackerFlight Track Log ✈ FDX1775 ✈ 02-May-2013 ✈ KIND - KCID

Flight Track Log - Related Links

Times and Time Zones

All times are in EDT time to prevent confusion due to time zone crossing. See the FDX1775 flight status page for this flight to view local times or setup timezone preferences in your user account.

Time Position Orientation Groundspeed Altitude Reporting Facility
EDT Latitude Longitude Course Direction KTS MPH feet Rate Location/Type
04:40AM 39.7167 -86.3167 218° Southwest 169 194 1,800  Level Indianapolis TRACON
04:40AM 39.7000 -86.3333 218° Southwest 167 192 2,900 2,100 Climbing Indianapolis TRACON
04:46AM 39.9580 -86.6760 218° Southwest 404 465 13,900 2,160 Climbing FlightAware
04:46AM 40.0220 -86.7170 334° Northwest 410 472 15,800 2,820 Climbing FlightAware
04:47AM 40.0980 -86.7760 329° Northwest 418 481 17,900 2,820 Climbing FlightAware
04:48AM 40.1380 -86.8590 302° West 417 480 19,800 2,520 Climbing FlightAware
04:48AM 40.1730 -86.9530 296° West 427 491 21,300 2,100 Climbing FlightAware
04:49AM 40.2140 -87.0580 297° West 436 502 22,800 1,920 Climbing FlightAware
04:50AM 40.2500 -87.1500 297° West 446 513 24,100 1,800 Climbing FlightAware
04:51AM 40.2940 -87.2620 297° West 454 522 25,400 1,800 Climbing FlightAware
04:51AM 40.3320 -87.3610 297° West 457 526 26,700 1,680 Climbing FlightAware
04:52AM 40.3690 -87.4610 296° West 463 533 27,700 1,440 Climbing FlightAware
04:53AM 40.4120 -87.5760 296° West 470 541 28,800 1,800 Climbing FlightAware
04:53AM 40.4500 -87.6770 296° West 461 531 30,300 2,160 Climbing FlightAware
04:54AM 40.4920 -87.7890 296° West 452 520 31,900 2,040 Climbing FlightAware
04:55AM 40.5290 -87.8860 297° West 446 513 33,200 1,560 Climbing FlightAware
04:55AM 40.5650 -87.9810 297° West 447 514 34,000 540 Climbing FlightAware
04:56AM 40.6070 -88.0960 296° West 449 517 34,000  Level FlightAware
04:57AM 40.6420 -88.1900 296° West 452 520 34,000  Level FlightAware
04:58AM 40.6840 -88.3050 296° West 457 526 34,000  Level FlightAware
04:58AM 40.7200 -88.4030 296° West 459 528 34,000  Level FlightAware
04:59AM 40.7580 -88.5060 296° West 461 531 34,000  Level FlightAware
05:00AM 40.7980 -88.6170 295° West 459 528 34,000  Level FlightAware
05:00AM 40.8360 -88.7230 295° West 458 527 34,000  Level FlightAware
05:01AM 40.8710 -88.8190 296° West 457 526 34,000  Level FlightAware
05:02AM 40.9130 -88.9350 296° West 454 522 34,000  Level FlightAware
05:02AM 40.9490 -89.0350 296° West 453 521 34,000  Level FlightAware
05:03AM 40.9900 -89.1500 295° West 451 519 34,000  Level FlightAware
05:04AM 41.0260 -89.2500 296° West 451 519 34,000  Level FlightAware
05:05AM 41.0600 -89.3450 295° West 451 519 34,000  Level FlightAware
05:05AM 41.1000 -89.4600 295° West 452 520 34,000  Level FlightAware
05:06AM 41.1350 -89.5610 295° West 450 518 34,000  Level FlightAware
05:07AM 41.1750 -89.6730 295° West 450 518 34,000  Level FlightAware
05:07AM 41.2110 -89.7760 295° West 451 519 34,000  Level FlightAware
05:08AM 41.2460 -89.8770 295° West 452 520 34,000 -600 Level FlightAware
05:09AM 41.2870 -89.9860 297° West 444 511 33,200 -2,280 Descending FlightAware
05:09AM 41.3250 -90.0830 298° West 448 516 30,800 -4,620 Descending FlightAware
05:10AM 41.3690 -90.1970 297° West 454 522 26,700 -4,620 Descending FlightAware
05:11AM 41.4070 -90.2960 297° West 450 518 24,300 -3,300 Descending FlightAware
05:12AM 41.4440 -90.3940 297° West 440 506 22,300 -2,940 Descending FlightAware
05:12AM 41.4830 -90.4970 297° West 431 496 20,200 -3,000 Descending FlightAware
05:13AM 41.5190 -90.5940 296° West 427 491 18,100 -3,180 Descending FlightAware
05:14AM 41.5600 -90.7020 297° West 422 486 15,700 -3,000 Descending FlightAware
05:14AM 41.5910 -90.7850 297° West 416 479 13,900 -2,940 Descending FlightAware
05:15AM 41.6280 -90.8830 297° West 407 468 11,800 -2,580 Descending FlightAware
05:16AM 41.6630 -90.9790 296° West 355 409 10,300 -1,200 Descending FlightAware
05:17AM 41.6930 -91.0580 297° West 290 334 10,000 -780 Descending FlightAware
05:17AM 41.7070 -91.0950 297° West 288 331 9,400 -1,680 Descending FlightAware
05:17AM 41.7160 -91.1210 295° West 287 330 8,900 -2,040 Descending FlightAware
05:18AM 41.7330 -91.1670 296° West 288 331 7,900 -1,920 Descending FlightAware
05:18AM 41.7350 -91.1720 298° West 288 331 7,800 -1,980 Descending FlightAware
05:18AM 41.7560 -91.2280 297° West 283 326 6,600 -1,980 Descending FlightAware
05:19AM 41.7730 -91.2750 296° West 278 320 5,700 -1,860 Descending FlightAware
05:19AM 41.7870 -91.3140 296° West 271 312 4,900 -1,860 Descending FlightAware
05:20AM 41.8040 -91.3610 296° West 271 312 4,000 -1,680 Descending FlightAware
05:20AM 41.8090 -91.3750 296° West 268 308 3,800 -1,200 Descending FlightAware
05:20AM 41.8240 -91.4150 297° West 254 292 3,200 -1,200 Descending FlightAware
05:21AM 41.8390 -91.4540 297° West 232 267 2,600 -840 Descending FlightAware
05:21AM 41.8540 -91.4950 296° West 199 229 2,400 -180 Descending FlightAware
05:22AM 41.8570 -91.5040 294° West 193 222 2,500 180 Climbing FlightAware
05:22AM 41.8650 -91.5270 295° West 174 200 2,500  Level FlightAware
05:23AM 41.8780 -91.5630 296° West 158 182 2,500 -240 Level FlightAware
05:23AM 41.8820 -91.5860 283° West 162 186 2,300 -660 Descending FlightAware
05:24AM 41.8830 -91.6150 273° West 151 174 1,900 -960 Descending FlightAware
05:24AM 41.8830 -91.6320 270° West 139 160 1,600 -900 Descending FlightAware
05:24AM 41.8830 -91.6530 270° West 131 151 1,300 -360 Descending FlightAware
05:25AM 41.8840 -91.6730 274° West 131 151 1,300  Level FlightAware
05:32AM 41.8833 -91.7000 294° West  Level FlightAware Approximate